Time;durP1;ratioP1;P1;durP2;ratioP2;P2;SDS_P1;SDS_P2;PMS_P1;PMS_P2;Temp;Humidity;BMP_temperature;BMP_pressure;BME280_temperature;BME280_humidity;BME280_pressure;Samples;Min_cycle;Max_cycle;Signal;HPM_P1;HPM_P2
2022/04/22 00:01:09;;;;;;;20.73;12.30;;;9.60;99.90;;;;;;5058227;28;20601;-65
2022/04/22 00:03:35;;;;;;;20.07;13.90;;;9.50;99.90;;;;;;5041102;28;20175;-66
2022/04/22 00:06:01;;;;;;;21.67;13.63;;;9.50;99.90;;;;;;5039554;28;20225;-65
2022/04/22 00:08:27;;;;;;;20.07;12.53;;;9.50;99.90;;;;;;5040172;28;20172;-66
2022/04/22 00:13:36;;;;;;;20.13;13.13;;;9.40;99.90;;;;;;5056550;28;20561;-67
2022/04/22 00:16:03;;;;;;;21.20;13.17;;;9.40;99.90;;;;;;5057038;28;20168;-66
2022/04/22 00:18:31;;;;;;;24.23;13.70;;;9.30;99.90;;;;;;5056658;28;20160;-68
2022/04/22 00:20:57;;;;;;;24.67;14.17;;;9.30;99.90;;;;;;5056320;28;20168;-66
2022/04/22 00:23:22;;;;;;;21.10;13.17;;;9.20;99.90;;;;;;5056425;28;20179;-66
2022/04/22 00:25:48;;;;;;;22.80;13.77;;;9.10;99.90;;;;;;5056536;28;20588;-65
2022/04/22 00:28:14;;;;;;;22.03;12.50;;;9.10;99.90;;;;;;5056166;28;20155;-66
2022/04/22 00:30:39;;;;;;;27.47;14.80;;;9.10;99.90;;;;;;5056367;28;20295;-66
2022/04/22 00:33:06;;;;;;;23.00;13.43;;;9.10;99.90;;;;;;5056360;28;20514;-64
2022/04/22 00:35:31;;;;;;;23.07;14.70;;;9.10;99.90;;;;;;5056159;28;20160;-65
2022/04/22 00:37:58;;;;;;;25.40;14.73;;;9.00;99.90;;;;;;5056451;28;20623;-66
2022/04/22 00:40:24;;;;;;;24.10;14.47;;;9.00;99.90;;;;;;5056725;28;20266;-69
2022/04/22 00:42:50;;;;;;;22.33;13.97;;;8.90;99.90;;;;;;5055156;28;20176;-66
2022/04/22 00:45:19;;;;;;;22.33;13.23;;;8.90;99.90;;;;;;5058058;28;20227;-66
2022/04/22 00:47:45;;;;;;;23.73;13.60;;;8.90;99.90;;;;;;5076814;28;20167;-66
2022/04/22 00:50:11;;;;;;;24.13;14.60;;;8.90;99.90;;;;;;5076611;28;20199;-68
2022/04/22 00:52:37;;;;;;;27.23;15.27;;;8.80;99.90;;;;;;5076259;28;20611;-67
2022/04/22 00:55:04;;;;;;;24.40;15.10;;;8.80;99.90;;;;;;5076634;28;20167;-65
2022/04/22 00:57:32;;;;;;;23.00;13.30;;;8.80;99.90;;;;;;5076420;28;20247;-67
2022/04/22 00:59:57;;;;;;;25.97;13.60;;;8.80;99.90;;;;;;5075913;28;20596;-66
2022/04/22 01:02:23;;;;;;;24.47;14.33;;;8.80;99.90;;;;;;5076415;28;20257;-65
2022/04/22 01:10:18;;;;;;;25.90;13.93;;;8.70;99.90;;;;;;5076533;28;20206;-67
2022/04/22 01:12:43;;;;;;;26.27;14.50;;;8.60;99.90;;;;;;5076520;28;20175;-66
2022/04/22 01:15:09;;;;;;;26.73;14.93;;;8.60;99.90;;;;;;5075346;28;20194;-64
2022/04/22 01:17:35;;;;;;;25.20;13.97;;;8.50;99.90;;;;;;5077173;28;20163;-65
2022/04/22 01:20:02;;;;;;;23.87;14.33;;;8.50;99.90;;;;;;5078262;28;20232;-65
2022/04/22 01:22:28;;;;;;;27.37;14.50;;;8.40;99.90;;;;;;5077550;28;20191;-66
2022/04/22 01:24:57;;;;;;;25.07;14.83;;;8.40;99.90;;;;;;5077506;28;20163;-66
2022/04/22 01:27:24;;;;;;;25.07;14.73;;;8.50;99.90;;;;;;5077857;28;20163;-66
2022/04/22 01:29:50;;;;;;;27.83;15.33;;;8.50;99.90;;;;;;5076460;28;20206;-66
2022/04/22 01:32:16;;;;;;;28.03;15.80;;;8.40;99.90;;;;;;5077111;28;20474;-65
2022/04/22 01:34:42;;;;;;;24.97;14.40;;;8.60;99.90;;;;;;5075515;28;20603;-65
2022/04/22 01:37:08;;;;;;;31.00;16.33;;;8.40;99.90;;;;;;5078377;28;20198;-68
2022/04/22 01:39:33;;;;;;;27.80;15.70;;;8.40;99.90;;;;;;5083751;28;20547;-66
2022/04/22 01:41:59;;;;;;;31.40;15.83;;;8.40;99.90;;;;;;5083724;28;20237;-65
2022/04/22 01:44:26;;;;;;;21.17;13.73;;;8.30;99.90;;;;;;5081780;28;20285;-64
2022/04/22 01:46:52;;;;;;;23.57;14.57;;;8.20;99.90;;;;;;5060933;28;20585;-65
2022/04/22 01:49:18;;;;;;;27.93;15.30;;;8.20;99.90;;;;;;5054817;28;20539;-65
2022/04/22 01:51:44;;;;;;;26.23;14.60;;;8.20;99.90;;;;;;5051336;28;20179;-66
2022/04/22 01:54:11;;;;;;;25.77;15.50;;;8.10;99.90;;;;;;5037912;28;20262;-65
2022/04/22 01:56:36;;;;;;;23.43;14.87;;;8.00;99.90;;;;;;5054769;28;20155;-66
2022/04/22 01:59:02;;;;;;;29.47;15.87;;;8.00;99.90;;;;;;5054981;28;20627;-64
2022/04/22 02:01:28;;;;;;;28.13;15.80;;;7.90;99.90;;;;;;5056177;28;20167;-67
2022/04/22 02:03:53;;;;;;;27.03;15.40;;;7.90;99.90;;;;;;5056920;28;20163;-66
2022/04/22 02:06:19;;;;;;;26.63;15.00;;;7.80;99.90;;;;;;5069915;28;20203;-67
2022/04/22 02:08:44;;;;;;;26.50;15.17;;;7.80;99.90;;;;;;5045661;28;20257;-66
2022/04/22 02:11:10;;;;;;;28.43;15.47;;;7.80;99.90;;;;;;5054743;28;20498;-65
2022/04/22 02:13:38;;;;;;;27.77;15.93;;;7.80;99.90;;;;;;5054144;28;20167;-65
2022/04/22 02:16:08;;;;;;;29.00;15.53;;;7.70;99.90;;;;;;5054653;28;20164;-65
2022/04/22 02:18:36;;;;;;;23.77;14.00;;;7.70;99.90;;;;;;5053887;28;20168;-64
2022/04/22 02:21:06;;;;;;;29.73;16.17;;;7.70;99.90;;;;;;5036603;28;20175;-65
2022/04/22 02:23:32;;;;;;;30.87;16.10;;;7.70;99.90;;;;;;5036452;28;20570;-65
2022/04/22 02:25:58;;;;;;;29.10;16.17;;;7.60;99.90;;;;;;5054279;28;20191;-66
2022/04/22 02:28:33;;;;;;;26.40;15.00;;;7.70;99.90;;;;;;5053572;28;20167;-65
2022/04/22 02:31:07;;;;;;;29.20;15.50;;;7.70;99.90;;;;;;5054018;28;20249;-65
2022/04/22 02:33:34;;;;;;;28.83;15.63;;;7.60;99.90;;;;;;5054205;28;20172;-65
2022/04/22 02:36:01;;;;;;;27.53;14.63;;;7.60;99.90;;;;;;5053925;28;20183;-65
2022/04/22 02:38:28;;;;;;;29.07;15.80;;;7.60;99.90;;;;;;5036473;28;20180;-65
2022/04/22 02:46:23;;;;;;;26.93;15.07;;;7.70;99.90;;;;;;5053896;28;20223;-65
2022/04/22 02:48:50;;;;;;;26.50;14.50;;;7.60;99.90;;;;;;5054067;28;20249;-65
2022/04/22 02:51:15;;;;;;;30.10;15.90;;;7.50;99.90;;;;;;5054609;28;20186;-65
2022/04/22 02:53:41;;;;;;;34.77;14.97;;;7.60;99.90;;;;;;5054075;28;20160;-66
2022/04/22 02:56:07;;;;;;;30.77;14.50;;;7.50;99.90;;;;;;5054785;28;20167;-67
2022/04/22 02:58:34;;;;;;;27.10;15.97;;;7.70;99.90;;;;;;5054124;28;20163;-66
2022/04/22 03:00:59;;;;;;;27.87;15.03;;;7.60;99.90;;;;;;5053594;28;20176;-67
2022/04/22 03:03:25;;;;;;;27.30;16.40;;;7.60;99.90;;;;;;5054223;28;20189;-65
2022/04/22 03:05:51;;;;;;;29.97;17.50;;;7.60;99.90;;;;;;5053244;28;20256;-66
2022/04/22 03:08:17;;;;;;;28.63;17.37;;;7.60;99.90;;;;;;5054384;28;20304;-65
2022/04/22 03:10:43;;;;;;;31.23;16.10;;;7.60;99.90;;;;;;5054242;28;20247;-66
2022/04/22 03:13:08;;;;;;;26.13;13.97;;;7.50;99.90;;;;;;5036486;28;20206;-66
2022/04/22 03:15:36;;;;;;;28.73;15.60;;;7.60;99.90;;;;;;5055578;28;20171;-65
2022/04/22 03:18:02;;;;;;;30.20;16.33;;;7.60;99.90;;;;;;5055840;28;20164;-66
2022/04/22 03:20:28;;;;;;;28.63;15.33;;;7.50;99.90;;;;;;5056563;28;20175;-67
2022/04/22 03:22:53;;;;;;;27.43;15.17;;;7.60;99.90;;;;;;5038138;28;20404;-66
2022/04/22 03:25:20;;;;;;;28.27;15.97;;;7.50;99.90;;;;;;5056287;28;20281;-65
2022/04/22 03:27:46;;;;;;;29.07;15.50;;;7.50;99.90;;;;;;5055559;28;20168;-65
2022/04/22 03:30:13;;;;;;;33.10;16.93;;;7.50;99.90;;;;;;5054164;28;20211;-65
2022/04/22 03:32:39;;;;;;;29.77;16.20;;;7.50;99.90;;;;;;5054337;28;20241;-65
2022/04/22 03:35:05;;;;;;;31.20;15.17;;;7.40;99.90;;;;;;5054263;28;20592;-66
2022/04/22 03:37:31;;;;;;;27.80;15.30;;;7.50;99.90;;;;;;5054680;28;20523;-66
2022/04/22 03:39:57;;;;;;;32.00;16.70;;;7.40;99.90;;;;;;5055552;28;20611;-65
2022/04/22 03:42:23;;;;;;;24.63;14.87;;;7.40;99.90;;;;;;5055467;28;20619;-66
2022/04/22 03:44:48;;;;;;;23.07;14.97;;;7.30;99.90;;;;;;5056261;28;20231;-66
2022/04/22 03:47:14;;;;;;;25.93;15.73;;;7.30;99.90;;;;;;5056876;28;20705;-66
2022/04/22 03:49:40;;;;;;;32.00;15.80;;;7.20;99.90;;;;;;5057089;28;20198;-66
2022/04/22 03:52:06;;;;;;;28.43;14.97;;;7.20;99.90;;;;;;5058906;28;20239;-66
2022/04/22 03:54:31;;;;;;;27.53;16.40;;;7.20;99.90;;;;;;5057686;28;20257;-66
2022/04/22 03:59:41;;;;;;;28.40;15.10;;;7.10;99.90;;;;;;5060458;28;20163;-66
2022/04/22 04:02:07;;;;;;;28.60;15.53;;;7.00;99.90;;;;;;5063580;28;20157;-66
2022/04/22 04:04:33;;;;;;;28.33;16.53;;;7.00;99.90;;;;;;5061875;28;20191;-65
2022/04/22 04:06:59;;;;;;;30.53;15.47;;;6.80;99.90;;;;;;5057181;28;20650;-66
2022/04/22 04:17:40;;;;;;;29.80;14.93;;;6.70;99.90;;;;;;5057205;28;20253;-66
2022/04/22 04:25:35;;;;;;;31.47;17.93;;;6.60;99.90;;;;;;5056020;28;20277;-65
2022/04/22 04:28:02;;;;;;;31.80;18.03;;;6.50;99.90;;;;;;5056252;28;20194;-65
2022/04/22 04:30:28;;;;;;;27.80;14.20;;;6.50;99.90;;;;;;5055923;28;20252;-66
2022/04/22 04:32:54;;;;;;;23.63;12.80;;;6.50;99.90;;;;;;5056646;28;20530;-65
2022/04/22 04:35:19;;;;;;;24.97;14.80;;;6.50;99.90;;;;;;5056645;28;20171;-65
2022/04/22 04:37:45;;;;;;;23.80;13.53;;;6.50;99.90;;;;;;5056939;28;20216;-65
2022/04/22 04:40:11;;;;;;;22.07;12.70;;;6.50;99.90;;;;;;5056185;28;20178;-66
2022/04/22 04:42:37;;;;;;;25.10;13.33;;;6.30;99.90;;;;;;5038809;28;20545;-67
2022/04/22 04:45:04;;;;;;;27.23;12.97;;;6.30;99.90;;;;;;5055784;28;20232;-65
2022/04/22 04:47:31;;;;;;;24.23;15.27;;;6.30;99.90;;;;;;5055978;28;20172;-64
2022/04/22 04:49:56;;;;;;;22.63;11.83;;;6.20;99.90;;;;;;5055867;28;20285;-65
2022/04/22 04:52:22;;;;;;;19.20;12.47;;;6.20;99.90;;;;;;5056534;28;20248;-66
2022/04/22 04:54:50;;;;;;;27.10;14.37;;;6.20;99.90;;;;;;5056462;28;20176;-65
2022/04/22 04:57:15;;;;;;;17.57;11.47;;;6.20;99.90;;;;;;5057558;28;20487;-65
2022/04/22 04:59:42;;;;;;;19.00;12.10;;;6.00;99.90;;;;;;5066563;28;20166;-65
2022/04/22 05:02:07;;;;;;;21.40;14.13;;;6.10;99.90;;;;;;5061718;28;20163;-66
2022/04/22 05:04:33;;;;;;;23.13;15.57;;;6.10;99.90;;;;;;5055549;28;20171;-65
2022/04/22 05:06:58;;;;;;;30.03;14.77;;;6.20;99.90;;;;;;5055976;28;20174;-65
2022/04/22 05:09:24;;;;;;;25.53;15.97;;;6.20;99.90;;;;;;5055474;28;20531;-65
2022/04/22 05:11:50;;;;;;;18.87;11.27;;;6.30;99.90;;;;;;5055642;28;20174;-66
2022/04/22 05:14:15;;;;;;;19.73;11.63;;;6.20;99.90;;;;;;5055928;28;20216;-65
2022/04/22 05:16:41;;;;;;;20.10;11.77;;;6.20;99.90;;;;;;5055753;28;20217;-65
2022/04/22 05:19:06;;;;;;;18.53;12.13;;;6.30;99.90;;;;;;5055322;28;20179;-66
2022/04/22 05:21:32;;;;;;;23.33;12.10;;;6.50;99.90;;;;;;5056116;28;20201;-64
2022/04/22 05:23:57;;;;;;;24.33;15.67;;;6.70;99.90;;;;;;5037698;28;20185;-66
2022/04/22 05:26:24;;;;;;;25.10;15.87;;;6.70;99.90;;;;;;5055180;28;20176;-66
2022/04/22 05:28:49;;;;;;;27.50;16.57;;;6.90;99.90;;;;;;5054633;28;20302;-66
2022/04/22 05:33:59;;;;;;;30.10;17.57;;;6.90;99.90;;;;;;5055372;28;20227;-66
2022/04/22 05:36:25;;;;;;;37.30;21.77;;;6.90;99.90;;;;;;5055657;28;20189;-66
2022/04/22 05:38:52;;;;;;;25.03;13.97;;;6.90;99.90;;;;;;5056014;28;20183;-66
2022/04/22 05:41:18;;;;;;;25.53;13.97;;;7.00;99.90;;;;;;5055339;28;20163;-66
2022/04/22 05:43:44;;;;;;;22.90;13.17;;;7.00;99.90;;;;;;5055150;28;20166;-66
2022/04/22 05:46:10;;;;;;;27.13;14.63;;;7.10;99.90;;;;;;5057212;28;20555;-66
2022/04/22 05:48:35;;;;;;;20.53;12.13;;;7.20;99.90;;;;;;5055468;28;20215;-66
2022/04/22 05:51:01;;;;;;;18.10;11.87;;;7.30;99.90;;;;;;5055438;28;20168;-66
2022/04/22 05:53:27;;;;;;;24.07;13.00;;;7.40;99.90;;;;;;5054900;28;20172;-65
2022/04/22 05:55:52;;;;;;;19.27;11.50;;;7.30;99.90;;;;;;5054750;28;20179;-67
2022/04/22 05:58:18;;;;;;;18.63;12.37;;;7.40;99.90;;;;;;5054920;28;20266;-66
2022/04/22 06:00:43;;;;;;;23.43;13.43;;;7.60;99.90;;;;;;5054579;28;20581;-67
2022/04/22 06:03:09;;;;;;;21.37;13.10;;;7.80;99.90;;;;;;5054688;28;20257;-65
2022/04/22 06:05:35;;;;;;;22.60;13.37;;;7.70;99.90;;;;;;5055580;28;20163;-65
2022/04/22 06:10:52;;;;;;;17.93;12.07;;;7.80;99.90;;;;;;5061385;28;20257;-67
2022/04/22 06:13:18;;;;;;;23.47;12.10;;;7.90;99.90;;;;;;5061285;28;20163;-67
2022/04/22 06:15:43;;;;;;;21.33;12.77;;;7.90;99.90;;;;;;5058468;28;20172;-66
2022/04/22 06:18:09;;;;;;;23.33;13.03;;;7.90;99.90;;;;;;5054190;28;20161;-66
2022/04/22 06:20:35;;;;;;;21.43;12.67;;;8.10;99.90;;;;;;5054895;28;20199;-65
2022/04/22 06:23:01;;;;;;;24.93;12.70;;;7.90;99.90;;;;;;5054623;28;20172;-66
2022/04/22 06:25:27;;;;;;;22.83;13.10;;;8.00;99.90;;;;;;5055236;28;20567;-66
2022/04/22 06:27:53;;;;;;;22.60;13.03;;;8.10;99.90;;;;;;5054371;28;20549;-67
2022/04/22 06:30:21;;;;;;;25.13;13.90;;;8.00;99.90;;;;;;5036634;28;20654;-66
2022/04/22 06:32:49;;;;;;;21.17;12.73;;;8.00;99.90;;;;;;5054674;28;20179;-67
2022/04/22 06:35:19;;;;;;;24.13;11.93;;;8.10;99.90;;;;;;5039000;28;20536;-65
2022/04/22 06:37:47;;;;;;;22.10;12.33;;;8.20;99.90;;;;;;5056852;28;20245;-66
2022/04/22 06:45:47;;;;;;;25.77;13.93;;;8.80;99.90;;;;;;5055561;28;20278;-66
2022/04/22 06:48:14;;;;;;;26.50;13.67;;;8.90;99.90;;;;;;5053739;28;20601;-68
2022/04/22 06:50:40;;;;;;;20.50;13.07;;;8.70;99.90;;;;;;5054136;28;20275;-65
2022/04/22 06:53:06;;;;;;;23.97;13.40;;;8.90;99.90;;;;;;5037954;28;20188;-67
2022/04/22 06:55:32;;;;;;;19.60;12.10;;;8.90;99.90;;;;;;5060362;28;20171;-65
2022/04/22 06:58:00;;;;;;;26.77;13.60;;;8.90;99.90;;;;;;5042135;28;20259;-66
2022/04/22 07:00:26;;;;;;;23.53;13.63;;;8.90;99.90;;;;;;5054379;28;20164;-65
2022/04/22 07:02:52;;;;;;;26.27;15.00;;;8.90;99.90;;;;;;5053846;28;20168;-66
2022/04/22 07:05:19;;;;;;;23.63;13.50;;;9.20;99.90;;;;;;5054185;28;20178;-67
2022/04/22 07:07:44;;;;;;;23.90;14.47;;;9.10;99.90;;;;;;5036922;28;20496;-67
2022/04/22 07:10:11;;;;;;;22.37;14.33;;;9.30;99.90;;;;;;5037707;28;20210;-66
2022/04/22 07:12:37;;;;;;;25.97;14.43;;;9.30;99.90;;;;;;5054587;28;20172;-67
2022/04/22 07:15:03;;;;;;;25.63;15.03;;;9.40;99.90;;;;;;5053731;28;20216;-65
2022/04/22 07:17:32;;;;;;;26.90;15.43;;;9.30;99.90;;;;;;5054329;28;20199;-65
2022/04/22 07:19:58;;;;;;;22.87;13.67;;;9.40;99.90;;;;;;5054049;28;20202;-65
2022/04/22 07:22:24;;;;;;;29.77;15.70;;;9.30;99.90;;;;;;5053573;28;20293;-65
2022/04/22 07:24:50;;;;;;;28.33;16.20;;;9.40;99.90;;;;;;5054591;28;20179;-67
2022/04/22 07:27:18;;;;;;;26.60;15.67;;;9.40;99.90;;;;;;5055205;28;20596;-66
2022/04/22 07:29:45;;;;;;;34.20;17.20;;;9.60;99.90;;;;;;5054942;28;20233;-66
2022/04/22 07:32:12;;;;;;;41.23;22.30;;;9.80;99.90;;;;;;5054657;28;20164;-65
2022/04/22 07:34:37;;;;;;;29.03;17.40;;;10.00;99.90;;;;;;5036707;28;20182;-66
2022/04/22 07:37:09;;;;;;;26.03;15.17;;;10.00;99.90;;;;;;5054021;28;20265;-66
2022/04/22 07:39:38;;;;;;;27.93;15.17;;;10.00;99.90;;;;;;5054026;28;20179;-66
2022/04/22 07:42:06;;;;;;;28.37;17.57;;;10.00;99.90;;;;;;5055102;28;20149;-65
2022/04/22 07:47:22;;;;;;;29.93;16.07;;;10.30;99.90;;;;;;5053969;28;20259;-66
2022/04/22 07:49:48;;;;;;;25.87;16.27;;;10.80;99.90;;;;;;5054400;28;20360;-66
2022/04/22 07:52:14;;;;;;;29.60;16.50;;;10.90;99.90;;;;;;5061791;28;20174;-67
2022/04/22 07:54:39;;;;;;;26.17;16.00;;;11.00;99.90;;;;;;5067886;28;20240;-65
2022/04/22 07:57:05;;;;;;;30.23;17.33;;;11.10;99.90;;;;;;5060675;28;20472;-65
2022/04/22 07:59:32;;;;;;;25.90;15.17;;;11.40;99.90;;;;;;5059013;28;20214;-67
2022/04/22 08:02:01;;;;;;;27.17;15.87;;;11.60;99.90;;;;;;5057985;28;20160;-65
2022/04/22 08:04:27;;;;;;;25.77;16.13;;;11.60;99.90;;;;;;5057573;28;20180;-66
2022/04/22 08:06:52;;;;;;;26.87;15.73;;;11.70;99.90;;;;;;5057055;28;20524;-66
2022/04/22 08:09:18;;;;;;;24.00;15.03;;;11.80;99.90;;;;;;5056916;28;20279;-65
2022/04/22 08:11:44;;;;;;;28.03;16.90;;;11.90;99.90;;;;;;5056885;28;20547;-66
2022/04/22 08:14:12;;;;;;;26.97;15.40;;;12.10;99.90;;;;;;5057103;28;20168;-66
2022/04/22 08:16:39;;;;;;;28.13;16.00;;;11.80;99.90;;;;;;5057205;28;20161;-65
2022/04/22 08:19:04;;;;;;;28.50;15.63;;;12.10;99.90;;;;;;5063550;28;20173;-65
2022/04/22 08:21:33;;;;;;;25.73;15.93;;;12.10;99.90;;;;;;5061678;28;20210;-65
2022/04/22 08:23:59;;;;;;;25.40;15.30;;;12.20;99.90;;;;;;5062566;28;20499;-66
2022/04/22 08:26:25;;;;;;;26.17;15.87;;;12.50;99.90;;;;;;5060072;28;20156;-66
2022/04/22 08:28:51;;;;;;;28.83;15.33;;;12.70;99.90;;;;;;5064157;28;20199;-66
2022/04/22 08:31:17;;;;;;;21.87;14.37;;;12.80;99.90;;;;;;5060857;28;20178;-65
2022/04/22 08:33:45;;;;;;;27.57;16.40;;;12.60;99.90;;;;;;5060674;28;20172;-67
2022/04/22 08:36:12;;;;;;;26.33;15.10;;;13.00;99.90;;;;;;5057178;28;20184;-65
2022/04/22 08:38:37;;;;;;;21.80;14.37;;;13.00;99.90;;;;;;5056765;28;20274;-66
2022/04/22 08:41:04;;;;;;;22.67;14.63;;;12.90;99.90;;;;;;5056364;28;20192;-65
2022/04/22 08:43:30;;;;;;;25.70;14.90;;;13.10;99.90;;;;;;5055776;28;20247;-65
2022/04/22 08:45:56;;;;;;;25.47;15.20;;;13.20;99.90;;;;;;5067737;28;20235;-66
2022/04/22 08:51:08;;;;;;;23.20;14.70;;;13.60;99.90;;;;;;5075760;28;20175;-67
2022/04/22 08:53:35;;;;;;;22.40;13.80;;;13.80;99.90;;;;;;5075908;28;20508;-66
2022/04/22 08:56:02;;;;;;;19.97;12.93;;;14.00;99.90;;;;;;5075873;28;20163;-68
2022/04/22 08:58:29;;;;;;;18.77;12.63;;;13.80;99.90;;;;;;5076444;28;20238;-69
2022/04/22 09:00:59;;;;;;;21.80;12.83;;;13.90;99.90;;;;;;5072304;28;20191;-67
2022/04/22 09:03:29;;;;;;;21.50;14.07;;;13.90;99.90;;;;;;5091437;28;20214;-66
2022/04/22 09:05:58;;;;;;;22.20;13.73;;;14.20;99.90;;;;;;5096129;28;20170;-66
2022/04/22 09:08:26;;;;;;;17.33;12.50;;;14.40;99.90;;;;;;5095969;28;20671;-71
2022/04/22 09:10:53;;;;;;;20.47;13.07;;;14.90;99.90;;;;;;5096101;28;20231;-73
2022/04/22 09:13:26;;;;;;;22.63;14.20;;;15.00;99.90;;;;;;5096596;28;20167;-74
2022/04/22 09:15:52;;;;;;;19.43;12.70;;;15.20;99.90;;;;;;5095592;28;20166;-69
2022/04/22 09:18:18;;;;;;;18.57;12.60;;;14.90;99.90;;;;;;5094979;28;20178;-66
2022/04/22 09:20:47;;;;;;;23.70;14.33;;;14.80;99.90;;;;;;5095843;28;20167;-67
2022/04/22 09:23:34;;;;;;;18.57;13.10;;;14.90;99.90;;;;;;5095804;28;20205;-67
2022/04/22 09:26:01;;;;;;;20.50;13.87;;;14.60;99.90;;;;;;5095461;28;20155;-67
2022/04/22 09:28:27;;;;;;;18.90;13.37;;;15.10;99.90;;;;;;5094722;28;20523;-66
2022/04/22 09:31:01;;;;;;;20.30;13.70;;;15.20;99.90;;;;;;5095604;28;20195;-65
2022/04/22 09:33:47;;;;;;;21.17;12.27;;;15.30;99.90;;;;;;5094082;28;20197;-67
2022/04/22 09:44:52;;;;;;;20.13;13.30;;;15.40;99.90;;;;;;5087037;28;20252;-68
2022/04/22 09:47:19;;;;;;;20.63;13.50;;;15.50;99.90;;;;;;5057263;28;20202;-66
2022/04/22 09:49:46;;;;;;;20.47;13.23;;;15.90;99.90;;;;;;5074467;28;20329;-66
2022/04/22 09:52:11;;;;;;;17.63;12.57;;;16.10;99.90;;;;;;5074267;28;20217;-65
2022/04/22 09:54:38;;;;;;;18.70;12.90;;;15.90;99.90;;;;;;5074407;28;20164;-67
2022/04/22 09:57:04;;;;;;;16.77;11.67;;;16.10;99.90;;;;;;5056878;28;20184;-67
2022/04/22 09:59:32;;;;;;;20.43;13.60;;;16.20;99.90;;;;;;5055873;28;20161;-66
2022/04/22 10:02:00;;;;;;;19.47;13.23;;;16.20;99.90;;;;;;5055535;28;20259;-66
2022/04/22 10:04:29;;;;;;;20.30;12.70;;;16.50;99.90;;;;;;5037895;28;20180;-66
2022/04/22 10:06:56;;;;;;;19.30;12.30;;;16.50;99.90;;;;;;5055158;28;20160;-67
2022/04/22 10:09:23;;;;;;;16.85;12.45;;;16.00;99.90;;;;;;5055042;28;20508;-66
2022/04/22 10:11:52;;;;;;;17.17;11.57;;;16.30;99.90;;;;;;5055945;28;20184;-67
2022/04/22 10:14:37;;;;;;;18.45;12.13;;;16.50;99.90;;;;;;5056908;28;20176;-66
2022/04/22 10:17:05;;;;;;;16.60;11.55;;;16.10;99.90;;;;;;5055134;28;20161;-67
2022/04/22 10:19:33;;;;;;;17.25;12.38;;;16.00;99.90;;;;;;5054647;28;20501;-67
2022/04/22 10:22:00;;;;;;;18.30;11.93;;;16.10;99.90;;;;;;5054934;28;20199;-68
2022/04/22 10:24:26;;;;;;;15.50;11.88;;;16.40;99.90;;;;;;5056536;28;20172;-67
2022/04/22 10:26:52;;;;;;;17.60;12.30;;;16.40;99.90;;;;;;5036768;28;20554;-67
2022/04/22 10:29:19;;;;;;;20.33;12.30;;;16.20;99.90;;;;;;5055389;28;20297;-66
2022/04/22 10:31:45;;;;;;;17.60;12.02;;;16.40;99.90;;;;;;5055603;28;20641;-67
2022/04/22 10:34:11;;;;;;;16.65;12.80;;;16.50;99.90;;;;;;5038919;28;20207;-66
2022/04/22 10:36:38;;;;;;;16.05;11.65;;;16.70;99.90;;;;;;5056776;28;20195;-67
2022/04/22 10:39:04;;;;;;;18.02;12.40;;;16.70;99.90;;;;;;5056798;28;20247;-66
2022/04/22 10:41:35;;;;;;;17.15;11.85;;;16.90;99.90;;;;;;5056052;28;20172;-65
2022/04/22 10:49:54;;;;;;;18.38;13.55;;;17.60;99.90;;;;;;5056167;28;20199;-69
2022/04/22 10:52:20;;;;;;;16.58;11.73;;;17.40;99.90;;;;;;5054511;28;20697;-68
2022/04/22 10:54:52;;;;;;;17.23;12.40;;;17.90;99.90;;;;;;5055654;28;20160;-66
2022/04/22 10:57:25;;;;;;;19.33;12.65;;;17.60;99.90;;;;;;5055597;28;20492;-66
2022/04/22 11:00:14;;;;;;;19.55;13.05;;;17.80;99.90;;;;;;5037243;28;20183;-66
2022/04/22 11:02:41;;;;;;;17.05;12.15;;;17.20;99.90;;;;;;5045974;28;20184;-67
2022/04/22 11:07:50;;;;;;;19.40;12.70;;;17.10;99.90;;;;;;5053619;28;20242;-66
2022/04/22 11:10:23;;;;;;;16.75;12.52;;;17.60;99.90;;;;;;5053582;28;20571;-64
2022/04/22 11:12:56;;;;;;;17.17;12.65;;;17.60;99.90;;;;;;5053317;28;20172;-68
2022/04/22 11:15:43;;;;;;;14.88;10.73;;;17.40;99.90;;;;;;5053213;28;20160;-67
2022/04/22 11:18:13;;;;;;;16.38;11.15;;;17.00;99.90;;;;;;5053769;28;20156;-67
2022/04/22 11:20:50;;;;;;;18.27;11.85;;;16.70;99.90;;;;;;5053789;28;20553;-65
2022/04/22 11:23:16;;;;;;;22.00;11.77;;;16.50;99.90;;;;;;5056214;28;20649;-66
2022/04/22 11:25:43;;;;;;;23.45;12.90;;;16.50;99.90;;;;;;5053493;28;20187;-66
2022/04/22 11:28:09;;;;;;;17.65;11.90;;;16.90;99.90;;;;;;5057313;28;20255;-67
2022/04/22 11:30:36;;;;;;;15.45;10.13;;;17.20;99.90;;;;;;5057261;28;20188;-66
2022/04/22 11:33:23;;;;;;;14.85;10.65;;;17.60;99.90;;;;;;5056956;28;20221;-67
2022/04/22 11:35:52;;;;;;;16.08;11.05;;;17.90;99.90;;;;;;5056914;28;20156;-66
2022/04/22 11:38:17;;;;;;;16.85;11.30;;;18.00;99.90;;;;;;5056886;28;20620;-65
2022/04/22 11:40:44;;;;;;;20.08;12.98;;;17.80;99.90;;;;;;5057040;28;20164;-68
2022/04/22 11:43:11;;;;;;;14.32;11.57;;;17.60;99.90;;;;;;5057500;28;20190;-65
2022/04/22 11:45:39;;;;;;;18.05;11.32;;;17.10;99.90;;;;;;5058273;28;20332;-68
2022/04/22 11:48:09;;;;;;;14.40;10.68;;;16.90;99.90;;;;;;5057022;28;20157;-65
2022/04/22 11:50:40;;;;;;;14.45;10.07;;;16.60;99.90;;;;;;5056772;28;20196;-67
2022/04/22 11:53:23;;;;;;;14.07;10.65;;;16.70;99.90;;;;;;5057193;28;20165;-66
2022/04/22 11:55:49;;;;;;;13.18;9.65;;;16.50;99.90;;;;;;5056805;28;20167;-65
2022/04/22 11:58:17;;;;;;;16.10;10.18;;;16.30;99.90;;;;;;5056717;28;20153;-66
2022/04/22 12:06:21;;;;;;;14.00;10.00;;;15.90;99.90;;;;;;5056641;28;20159;-67
2022/04/22 12:08:53;;;;;;;13.40;9.98;;;16.00;99.90;;;;;;5038778;28;20187;-65
2022/04/22 12:11:19;;;;;;;13.70;9.07;;;15.80;99.90;;;;;;5056710;28;20196;-65
2022/04/22 12:13:47;;;;;;;13.88;9.60;;;15.70;99.90;;;;;;5056384;28;20239;-65
2022/04/22 12:16:20;;;;;;;13.23;9.43;;;15.70;99.90;;;;;;5056645;28;20243;-67
2022/04/22 12:18:48;;;;;;;13.47;9.80;;;15.60;99.90;;;;;;5056800;28;20250;-66
2022/04/22 12:21:14;;;;;;;16.87;10.97;;;15.70;99.90;;;;;;5038296;28;20245;-65
2022/04/22 12:23:42;;;;;;;14.80;10.57;;;15.50;99.90;;;;;;5055890;28;20167;-66
2022/04/22 12:26:25;;;;;;;13.23;9.60;;;15.60;99.90;;;;;;5056161;28;20168;-66
2022/04/22 12:29:09;;;;;;;13.40;9.43;;;15.60;99.90;;;;;;5055962;28;20160;-66
2022/04/22 12:31:39;;;;;;;14.20;9.40;;;15.50;99.90;;;;;;5056664;28;20188;-66
2022/04/22 12:34:07;;;;;;;10.13;8.57;;;15.40;99.90;;;;;;5039362;28;20211;-65
2022/04/22 12:36:53;;;;;;;13.23;9.53;;;15.50;99.90;;;;;;5057670;28;20619;-67
2022/04/22 12:39:51;;;;;;;11.70;8.63;;;15.50;99.90;;;;;;5057942;28;20179;-66
2022/04/22 12:42:16;;;;;;;15.03;8.87;;;15.60;99.90;;;;;;5005649;28;20192;-65
2022/04/22 12:52:07;;;;;;;10.57;8.23;;;15.60;99.90;;;;;;5050582;28;20705;-66
2022/04/22 12:52:57;;;;;;;9.20;7.23;;;15.40;99.90;;;;;;5077331;28;20159;-66
2022/04/22 12:55:23;;;;;;;8.80;7.07;;;15.30;99.90;;;;;;5075847;28;20503;-66
2022/04/22 12:57:59;;;;;;;13.33;8.13;;;15.30;99.90;;;;;;5075573;28;20152;-66
2022/04/22 13:00:25;;;;;;;12.70;7.83;;;15.30;99.90;;;;;;5075622;28;20167;-65
2022/04/22 13:02:51;;;;;;;10.67;8.13;;;15.20;99.90;;;;;;5075877;28;20156;-67
2022/04/22 13:05:18;;;;;;;12.23;8.50;;;15.20;99.90;;;;;;5075840;28;20509;-66
2022/04/22 13:07:49;;;;;;;11.00;8.50;;;15.20;99.90;;;;;;5075308;28;20167;-67
2022/04/22 13:10:20;;;;;;;11.67;8.83;;;15.30;99.90;;;;;;5075041;28;20547;-66
2022/04/22 13:12:47;;;;;;;15.57;9.00;;;15.30;99.90;;;;;;5075938;28;20170;-65
2022/04/22 13:15:17;;;;;;;13.30;9.10;;;15.20;99.90;;;;;;5076233;28;20242;-66
2022/04/22 13:17:44;;;;;;;15.67;9.80;;;15.30;99.90;;;;;;5075236;28;20213;-66
2022/04/22 13:20:12;;;;;;;13.73;9.67;;;15.40;99.90;;;;;;5075385;28;20159;-66
2022/04/22 13:22:39;;;;;;;17.70;9.83;;;15.40;99.90;;;;;;5075704;28;20588;-67
2022/04/22 13:25:05;;;;;;;14.03;9.37;;;15.50;99.90;;;;;;5075741;28;20225;-65
2022/04/22 13:27:31;;;;;;;12.83;9.40;;;15.60;99.90;;;;;;5075412;28;20199;-65
2022/04/22 13:29:56;;;;;;;15.73;10.13;;;15.50;99.90;;;;;;5076116;28;20199;-66
2022/04/22 13:32:22;;;;;;;16.43;10.23;;;15.30;99.90;;;;;;5075539;28;20213;-66
2022/04/22 13:34:48;;;;;;;15.87;10.17;;;15.30;99.90;;;;;;5075280;28;20619;-65
2022/04/22 13:37:13;;;;;;;14.70;11.30;;;15.20;99.90;;;;;;5075894;28;20656;-66
2022/04/22 13:39:39;;;;;;;13.97;9.80;;;15.30;99.90;;;;;;5080844;28;20167;-65
2022/04/22 13:42:05;;;;;;;17.10;10.90;;;15.00;99.90;;;;;;5082455;28;20313;-64
2022/04/22 13:52:44;;;;;;;16.77;11.63;;;14.60;99.90;;;;;;5054615;28;20175;-66
2022/04/22 13:55:11;;;;;;;17.63;12.03;;;14.70;99.90;;;;;;5055299;28;20243;-66
2022/04/22 13:57:36;;;;;;;14.73;11.03;;;14.50;99.90;;;;;;5054828;28;20168;-65